sensor_id;sensor_type;location;lat;lon;timestamp;P1;durP1;ratioP1;P2;durP2;ratioP2
6033;SDS011;3045;43.226;27.858;2023-04-06T00:00:47;10.07;;;9.40;;
6033;SDS011;3045;43.226;27.858;2023-04-06T00:03:14;11.10;;;10.40;;
6033;SDS011;3045;43.226;27.858;2023-04-06T00:05:43;9.77;;;9.17;;
6033;SDS011;3045;43.226;27.858;2023-04-06T00:08:10;9.50;;;9.00;;
6033;SDS011;3045;43.226;27.858;2023-04-06T00:10:38;9.60;;;9.03;;
6033;SDS011;3045;43.226;27.858;2023-04-06T00:13:05;9.60;;;9.10;;
6033;SDS011;3045;43.226;27.858;2023-04-06T00:15:33;9.03;;;8.60;;
6033;SDS011;3045;43.226;27.858;2023-04-06T00:18:00;9.47;;;8.87;;
6033;SDS011;3045;43.226;27.858;2023-04-06T00:20:27;10.63;;;9.83;;
6033;SDS011;3045;43.226;27.858;2023-04-06T00:22:55;9.83;;;9.23;;
6033;SDS011;3045;43.226;27.858;2023-04-06T00:25:22;10.67;;;9.97;;
6033;SDS011;3045;43.226;27.858;2023-04-06T00:27:50;11.03;;;10.23;;
6033;SDS011;3045;43.226;27.858;2023-04-06T00:30:17;11.07;;;10.37;;
6033;SDS011;3045;43.226;27.858;2023-04-06T00:32:44;10.60;;;9.90;;
6033;SDS011;3045;43.226;27.858;2023-04-06T00:35:12;10.37;;;9.77;;
6033;SDS011;3045;43.226;27.858;2023-04-06T00:37:40;11.07;;;10.43;;
6033;SDS011;3045;43.226;27.858;2023-04-06T00:40:09;11.53;;;10.73;;
6033;SDS011;3045;43.226;27.858;2023-04-06T00:42:37;11.10;;;10.23;;
6033;SDS011;3045;43.226;27.858;2023-04-06T00:45:06;11.23;;;10.47;;
6033;SDS011;3045;43.226;27.858;2023-04-06T00:47:34;10.73;;;10.10;;
6033;SDS011;3045;43.226;27.858;2023-04-06T00:50:01;10.77;;;10.07;;
6033;SDS011;3045;43.226;27.858;2023-04-06T00:52:28;10.57;;;9.97;;
6033;SDS011;3045;43.226;27.858;2023-04-06T00:54:56;10.00;;;9.23;;
6033;SDS011;3045;43.226;27.858;2023-04-06T00:57:24;8.87;;;8.47;;
6033;SDS011;3045;43.226;27.858;2023-04-06T00:59:52;9.20;;;8.60;;
6033;SDS011;3045;43.226;27.858;2023-04-06T01:02:19;8.57;;;8.00;;
6033;SDS011;3045;43.226;27.858;2023-04-06T01:04:47;8.57;;;8.13;;
6033;SDS011;3045;43.226;27.858;2023-04-06T01:07:14;8.10;;;7.70;;
6033;SDS011;3045;43.226;27.858;2023-04-06T01:09:41;7.73;;;7.30;;
6033;SDS011;3045;43.226;27.858;2023-04-06T01:12:08;8.00;;;7.70;;
6033;SDS011;3045;43.226;27.858;2023-04-06T01:14:37;7.87;;;7.50;;
6033;SDS011;3045;43.226;27.858;2023-04-06T01:17:04;8.30;;;7.90;;
6033;SDS011;3045;43.226;27.858;2023-04-06T01:19:31;7.30;;;7.00;;
6033;SDS011;3045;43.226;27.858;2023-04-06T01:21:58;7.83;;;7.30;;
6033;SDS011;3045;43.226;27.858;2023-04-06T01:24:27;8.33;;;7.80;;
6033;SDS011;3045;43.226;27.858;2023-04-06T01:26:54;7.73;;;7.17;;
6033;SDS011;3045;43.226;27.858;2023-04-06T01:29:21;7.10;;;6.70;;
6033;SDS011;3045;43.226;27.858;2023-04-06T01:31:48;7.13;;;6.83;;
6033;SDS011;3045;43.226;27.858;2023-04-06T01:34:16;7.23;;;6.93;;
6033;SDS011;3045;43.226;27.858;2023-04-06T01:36:43;6.77;;;6.47;;
6033;SDS011;3045;43.226;27.858;2023-04-06T01:39:11;6.93;;;6.63;;
6033;SDS011;3045;43.226;27.858;2023-04-06T01:41:40;7.07;;;6.77;;
6033;SDS011;3045;43.226;27.858;2023-04-06T01:44:07;7.77;;;7.40;;
6033;SDS011;3045;43.226;27.858;2023-04-06T01:46:34;7.63;;;7.33;;
6033;SDS011;3045;43.226;27.858;2023-04-06T01:49:01;8.10;;;7.70;;
6033;SDS011;3045;43.226;27.858;2023-04-06T01:51:28;7.47;;;7.07;;
6033;SDS011;3045;43.226;27.858;2023-04-06T01:53:56;7.90;;;7.50;;
6033;SDS011;3045;43.226;27.858;2023-04-06T01:56:23;7.10;;;6.80;;
6033;SDS011;3045;43.226;27.858;2023-04-06T01:58:53;8.10;;;7.70;;
6033;SDS011;3045;43.226;27.858;2023-04-06T02:01:20;7.90;;;7.40;;
6033;SDS011;3045;43.226;27.858;2023-04-06T02:03:47;8.37;;;7.77;;
6033;SDS011;3045;43.226;27.858;2023-04-06T02:06:14;7.87;;;7.47;;
6033;SDS011;3045;43.226;27.858;2023-04-06T02:08:41;7.87;;;7.57;;
6033;SDS011;3045;43.226;27.858;2023-04-06T02:11:08;7.47;;;7.07;;
6033;SDS011;3045;43.226;27.858;2023-04-06T02:13:36;7.30;;;7.00;;
6033;SDS011;3045;43.226;27.858;2023-04-06T02:16:04;7.33;;;7.03;;
6033;SDS011;3045;43.226;27.858;2023-04-06T02:18:32;8.20;;;7.67;;
6033;SDS011;3045;43.226;27.858;2023-04-06T02:20:59;7.80;;;7.40;;
6033;SDS011;3045;43.226;27.858;2023-04-06T02:23:26;7.70;;;7.30;;
6033;SDS011;3045;43.226;27.858;2023-04-06T02:25:53;7.20;;;6.90;;
6033;SDS011;3045;43.226;27.858;2023-04-06T02:28:20;8.13;;;7.73;;
6033;SDS011;3045;43.226;27.858;2023-04-06T02:30:47;7.77;;;7.27;;
6033;SDS011;3045;43.226;27.858;2023-04-06T02:33:16;8.57;;;8.17;;
6033;SDS011;3045;43.226;27.858;2023-04-06T02:35:43;8.60;;;8.10;;
6033;SDS011;3045;43.226;27.858;2023-04-06T02:38:11;8.30;;;7.90;;
6033;SDS011;3045;43.226;27.858;2023-04-06T02:40:38;8.40;;;7.57;;
6033;SDS011;3045;43.226;27.858;2023-04-06T02:43:05;8.73;;;8.33;;
6033;SDS011;3045;43.226;27.858;2023-04-06T02:45:32;8.23;;;7.70;;
6033;SDS011;3045;43.226;27.858;2023-04-06T02:48:00;7.50;;;7.20;;
6033;SDS011;3045;43.226;27.858;2023-04-06T02:50:31;7.70;;;7.30;;
6033;SDS011;3045;43.226;27.858;2023-04-06T02:52:58;8.73;;;8.30;;
6033;SDS011;3045;43.226;27.858;2023-04-06T02:55:25;8.47;;;7.90;;
6033;SDS011;3045;43.226;27.858;2023-04-06T02:57:52;8.07;;;7.50;;
6033;SDS011;3045;43.226;27.858;2023-04-06T03:00:19;8.03;;;7.70;;
6033;SDS011;3045;43.226;27.858;2023-04-06T03:02:46;7.57;;;6.93;;
6033;SDS011;3045;43.226;27.858;2023-04-06T03:05:13;8.50;;;7.87;;
6033;SDS011;3045;43.226;27.858;2023-04-06T03:07:44;8.67;;;8.00;;
6033;SDS011;3045;43.226;27.858;2023-04-06T03:10:11;8.57;;;8.10;;
6033;SDS011;3045;43.226;27.858;2023-04-06T03:12:38;8.30;;;7.70;;
6033;SDS011;3045;43.226;27.858;2023-04-06T03:15:07;8.33;;;7.83;;
6033;SDS011;3045;43.226;27.858;2023-04-06T03:17:35;8.33;;;7.93;;
6033;SDS011;3045;43.226;27.858;2023-04-06T03:20:03;9.00;;;7.97;;
6033;SDS011;3045;43.226;27.858;2023-04-06T03:22:30;9.27;;;8.33;;
6033;SDS011;3045;43.226;27.858;2023-04-06T03:24:59;9.17;;;8.67;;
6033;SDS011;3045;43.226;27.858;2023-04-06T03:27:26;9.43;;;8.70;;
6033;SDS011;3045;43.226;27.858;2023-04-06T03:29:53;8.80;;;8.30;;
6033;SDS011;3045;43.226;27.858;2023-04-06T03:32:20;9.50;;;8.57;;
6033;SDS011;3045;43.226;27.858;2023-04-06T03:34:47;9.63;;;8.73;;
6033;SDS011;3045;43.226;27.858;2023-04-06T03:37:14;10.17;;;9.40;;
6033;SDS011;3045;43.226;27.858;2023-04-06T03:39:41;9.07;;;8.53;;
6033;SDS011;3045;43.226;27.858;2023-04-06T03:42:10;8.70;;;8.30;;
6033;SDS011;3045;43.226;27.858;2023-04-06T03:44:37;8.80;;;7.97;;
6033;SDS011;3045;43.226;27.858;2023-04-06T03:47:04;9.87;;;8.73;;
6033;SDS011;3045;43.226;27.858;2023-04-06T03:49:31;9.87;;;9.00;;
6033;SDS011;3045;43.226;27.858;2023-04-06T03:51:58;17.20;;;9.10;;
6033;SDS011;3045;43.226;27.858;2023-04-06T03:54:28;14.50;;;9.30;;
6033;SDS011;3045;43.226;27.858;2023-04-06T03:56:55;17.03;;;10.40;;
6033;SDS011;3045;43.226;27.858;2023-04-06T03:59:23;16.97;;;9.63;;
6033;SDS011;3045;43.226;27.858;2023-04-06T04:01:51;19.10;;;9.73;;
6033;SDS011;3045;43.226;27.858;2023-04-06T04:04:18;9.83;;;8.93;;
6033;SDS011;3045;43.226;27.858;2023-04-06T04:06:45;10.50;;;9.50;;
6033;SDS011;3045;43.226;27.858;2023-04-06T04:09:12;10.83;;;9.63;;
6033;SDS011;3045;43.226;27.858;2023-04-06T04:11:40;9.83;;;9.07;;
6033;SDS011;3045;43.226;27.858;2023-04-06T04:14:07;11.00;;;8.70;;
6033;SDS011;3045;43.226;27.858;2023-04-06T04:16:35;13.73;;;9.67;;
6033;SDS011;3045;43.226;27.858;2023-04-06T04:19:04;11.40;;;10.20;;
6033;SDS011;3045;43.226;27.858;2023-04-06T04:21:31;11.87;;;9.70;;
6033;SDS011;3045;43.226;27.858;2023-04-06T04:23:58;10.83;;;9.80;;
6033;SDS011;3045;43.226;27.858;2023-04-06T04:26:25;13.80;;;9.50;;
6033;SDS011;3045;43.226;27.858;2023-04-06T04:28:52;11.10;;;9.83;;
6033;SDS011;3045;43.226;27.858;2023-04-06T04:31:19;13.70;;;10.00;;
6033;SDS011;3045;43.226;27.858;2023-04-06T04:33:49;13.23;;;10.33;;
6033;SDS011;3045;43.226;27.858;2023-04-06T04:36:16;13.40;;;11.07;;
6033;SDS011;3045;43.226;27.858;2023-04-06T04:38:43;18.57;;;11.03;;
6033;SDS011;3045;43.226;27.858;2023-04-06T04:41:10;21.67;;;11.00;;
6033;SDS011;3045;43.226;27.858;2023-04-06T04:43:37;19.00;;;11.43;;
6033;SDS011;3045;43.226;27.858;2023-04-06T04:46:05;12.20;;;10.93;;
6033;SDS011;3045;43.226;27.858;2023-04-06T04:48:32;12.20;;;10.90;;
6033;SDS011;3045;43.226;27.858;2023-04-06T04:51:00;19.63;;;11.27;;
6033;SDS011;3045;43.226;27.858;2023-04-06T04:53:28;17.40;;;11.67;;
6033;SDS011;3045;43.226;27.858;2023-04-06T04:55:55;21.00;;;11.47;;
6033;SDS011;3045;43.226;27.858;2023-04-06T04:58:22;12.80;;;11.30;;
6033;SDS011;3045;43.226;27.858;2023-04-06T05:00:49;16.03;;;11.60;;
6033;SDS011;3045;43.226;27.858;2023-04-06T05:03:17;11.70;;;10.60;;
6033;SDS011;3045;43.226;27.858;2023-04-06T05:05:47;27.20;;;11.60;;
6033;SDS011;3045;43.226;27.858;2023-04-06T05:08:18;12.70;;;10.73;;
6033;SDS011;3045;43.226;27.858;2023-04-06T05:10:45;18.40;;;13.07;;
6033;SDS011;3045;43.226;27.858;2023-04-06T05:13:13;11.77;;;10.60;;
6033;SDS011;3045;43.226;27.858;2023-04-06T05:15:40;16.37;;;10.53;;
6033;SDS011;3045;43.226;27.858;2023-04-06T05:18:07;10.90;;;10.00;;
6033;SDS011;3045;43.226;27.858;2023-04-06T05:20:35;13.60;;;9.83;;
6033;SDS011;3045;43.226;27.858;2023-04-06T05:23:04;10.90;;;10.00;;
6033;SDS011;3045;43.226;27.858;2023-04-06T05:25:33;10.03;;;9.53;;
6033;SDS011;3045;43.226;27.858;2023-04-06T05:28:00;10.60;;;9.60;;
6033;SDS011;3045;43.226;27.858;2023-04-06T05:30:27;17.07;;;10.57;;
6033;SDS011;3045;43.226;27.858;2023-04-06T05:32:55;11.33;;;10.33;;
6033;SDS011;3045;43.226;27.858;2023-04-06T05:35:22;11.37;;;10.57;;
6033;SDS011;3045;43.226;27.858;2023-04-06T05:37:49;18.90;;;10.73;;
6033;SDS011;3045;43.226;27.858;2023-04-06T05:40:16;16.43;;;10.90;;
6033;SDS011;3045;43.226;27.858;2023-04-06T05:42:48;11.60;;;10.40;;
6033;SDS011;3045;43.226;27.858;2023-04-06T05:45:16;15.33;;;11.60;;
6033;SDS011;3045;43.226;27.858;2023-04-06T05:47:46;18.83;;;10.43;;
6033;SDS011;3045;43.226;27.858;2023-04-06T05:50:14;15.93;;;11.10;;
6033;SDS011;3045;43.226;27.858;2023-04-06T05:52:42;16.70;;;9.93;;
6033;SDS011;3045;43.226;27.858;2023-04-06T05:55:12;22.50;;;10.93;;
6033;SDS011;3045;43.226;27.858;2023-04-06T05:57:39;17.37;;;11.20;;
6033;SDS011;3045;43.226;27.858;2023-04-06T06:00:09;19.13;;;10.37;;
6033;SDS011;3045;43.226;27.858;2023-04-06T06:02:37;13.50;;;11.53;;
6033;SDS011;3045;43.226;27.858;2023-04-06T06:05:08;21.20;;;10.33;;
6033;SDS011;3045;43.226;27.858;2023-04-06T06:07:35;10.10;;;9.30;;
6033;SDS011;3045;43.226;27.858;2023-04-06T06:10:02;9.40;;;8.90;;
6033;SDS011;3045;43.226;27.858;2023-04-06T06:12:29;9.07;;;8.23;;
6033;SDS011;3045;43.226;27.858;2023-04-06T06:14:57;9.83;;;9.30;;
6033;SDS011;3045;43.226;27.858;2023-04-06T06:17:25;10.43;;;9.30;;
6033;SDS011;3045;43.226;27.858;2023-04-06T06:19:52;10.40;;;9.80;;
6033;SDS011;3045;43.226;27.858;2023-04-06T06:22:20;11.60;;;9.53;;
6033;SDS011;3045;43.226;27.858;2023-04-06T06:24:47;10.30;;;9.57;;
6033;SDS011;3045;43.226;27.858;2023-04-06T06:27:14;15.23;;;10.27;;
6033;SDS011;3045;43.226;27.858;2023-04-06T06:29:42;18.77;;;10.47;;
6033;SDS011;3045;43.226;27.858;2023-04-06T06:32:09;17.80;;;10.37;;
6033;SDS011;3045;43.226;27.858;2023-04-06T06:34:37;11.70;;;10.80;;
6033;SDS011;3045;43.226;27.858;2023-04-06T06:37:05;11.20;;;10.00;;
6033;SDS011;3045;43.226;27.858;2023-04-06T06:39:32;9.73;;;8.97;;
6033;SDS011;3045;43.226;27.858;2023-04-06T06:41:59;9.23;;;8.67;;
6033;SDS011;3045;43.226;27.858;2023-04-06T06:44:27;10.63;;;9.70;;
6033;SDS011;3045;43.226;27.858;2023-04-06T06:46:56;13.53;;;11.00;;
6033;SDS011;3045;43.226;27.858;2023-04-06T06:49:24;23.23;;;11.60;;
6033;SDS011;3045;43.226;27.858;2023-04-06T06:51:52;11.37;;;10.63;;
6033;SDS011;3045;43.226;27.858;2023-04-06T06:54:20;19.37;;;12.67;;
6033;SDS011;3045;43.226;27.858;2023-04-06T06:56:47;12.10;;;11.03;;
6033;SDS011;3045;43.226;27.858;2023-04-06T06:59:15;12.33;;;11.17;;
6033;SDS011;3045;43.226;27.858;2023-04-06T07:01:42;18.43;;;12.00;;
6033;SDS011;3045;43.226;27.858;2023-04-06T07:04:10;16.13;;;11.83;;
6033;SDS011;3045;43.226;27.858;2023-04-06T07:06:38;12.47;;;11.07;;
6033;SDS011;3045;43.226;27.858;2023-04-06T07:09:08;13.37;;;11.30;;
6033;SDS011;3045;43.226;27.858;2023-04-06T07:11:35;17.60;;;11.63;;
6033;SDS011;3045;43.226;27.858;2023-04-06T07:14:03;13.77;;;10.43;;
6033;SDS011;3045;43.226;27.858;2023-04-06T07:16:33;9.23;;;8.63;;
6033;SDS011;3045;43.226;27.858;2023-04-06T07:19:00;10.20;;;9.57;;
6033;SDS011;3045;43.226;27.858;2023-04-06T07:21:27;8.07;;;7.70;;
6033;SDS011;3045;43.226;27.858;2023-04-06T07:23:56;7.40;;;6.47;;
6033;SDS011;3045;43.226;27.858;2023-04-06T07:26:28;7.07;;;6.50;;
6033;SDS011;3045;43.226;27.858;2023-04-06T07:28:55;18.93;;;7.50;;
6033;SDS011;3045;43.226;27.858;2023-04-06T07:31:22;12.80;;;6.93;;
6033;SDS011;3045;43.226;27.858;2023-04-06T07:33:49;12.23;;;7.47;;
6033;SDS011;3045;43.226;27.858;2023-04-06T07:36:22;8.63;;;6.90;;
6033;SDS011;3045;43.226;27.858;2023-04-06T07:38:49;7.87;;;7.27;;
6033;SDS011;3045;43.226;27.858;2023-04-06T07:41:16;6.93;;;6.37;;
6033;SDS011;3045;43.226;27.858;2023-04-06T07:43:45;7.23;;;6.67;;
6033;SDS011;3045;43.226;27.858;2023-04-06T07:46:12;7.80;;;6.93;;
6033;SDS011;3045;43.226;27.858;2023-04-06T07:48:39;6.23;;;5.93;;
6033;SDS011;3045;43.226;27.858;2023-04-06T07:51:06;7.07;;;6.47;;
6033;SDS011;3045;43.226;27.858;2023-04-06T07:53:35;8.37;;;7.57;;
6033;SDS011;3045;43.226;27.858;2023-04-06T07:56:02;7.77;;;7.37;;
6033;SDS011;3045;43.226;27.858;2023-04-06T07:58:30;8.67;;;8.27;;
6033;SDS011;3045;43.226;27.858;2023-04-06T08:00:58;9.13;;;8.63;;
6033;SDS011;3045;43.226;27.858;2023-04-06T08:03:25;8.77;;;8.37;;
6033;SDS011;3045;43.226;27.858;2023-04-06T08:05:52;9.60;;;8.80;;
6033;SDS011;3045;43.226;27.858;2023-04-06T08:08:20;10.50;;;8.17;;
6033;SDS011;3045;43.226;27.858;2023-04-06T08:10:47;8.60;;;8.13;;
6033;SDS011;3045;43.226;27.858;2023-04-06T08:13:15;8.30;;;7.43;;
6033;SDS011;3045;43.226;27.858;2023-04-06T08:15:42;8.27;;;7.87;;
6033;SDS011;3045;43.226;27.858;2023-04-06T08:18:11;9.97;;;7.83;;
6033;SDS011;3045;43.226;27.858;2023-04-06T08:20:38;14.07;;;7.00;;
6033;SDS011;3045;43.226;27.858;2023-04-06T08:23:09;6.57;;;6.03;;
6033;SDS011;3045;43.226;27.858;2023-04-06T08:25:36;8.67;;;6.80;;
6033;SDS011;3045;43.226;27.858;2023-04-06T08:28:03;6.77;;;6.27;;
6033;SDS011;3045;43.226;27.858;2023-04-06T08:30:31;7.17;;;6.43;;
6033;SDS011;3045;43.226;27.858;2023-04-06T08:32:58;7.17;;;6.67;;
6033;SDS011;3045;43.226;27.858;2023-04-06T08:35:27;7.10;;;6.70;;
6033;SDS011;3045;43.226;27.858;2023-04-06T08:37:54;9.30;;;6.67;;
6033;SDS011;3045;43.226;27.858;2023-04-06T08:40:21;6.30;;;6.00;;
6033;SDS011;3045;43.226;27.858;2023-04-06T08:42:49;6.80;;;6.50;;
6033;SDS011;3045;43.226;27.858;2023-04-06T08:45:18;6.87;;;6.30;;
6033;SDS011;3045;43.226;27.858;2023-04-06T08:47:46;7.27;;;6.50;;
6033;SDS011;3045;43.226;27.858;2023-04-06T08:50:17;8.23;;;6.97;;
6033;SDS011;3045;43.226;27.858;2023-04-06T08:52:47;12.10;;;7.63;;
6033;SDS011;3045;43.226;27.858;2023-04-06T08:55:17;11.47;;;7.23;;
6033;SDS011;3045;43.226;27.858;2023-04-06T08:57:45;10.20;;;7.33;;
6033;SDS011;3045;43.226;27.858;2023-04-06T09:00:18;7.93;;;6.87;;
6033;SDS011;3045;43.226;27.858;2023-04-06T09:02:46;11.80;;;6.80;;
6033;SDS011;3045;43.226;27.858;2023-04-06T09:05:16;7.40;;;6.33;;
6033;SDS011;3045;43.226;27.858;2023-04-06T09:07:44;8.10;;;7.40;;
6033;SDS011;3045;43.226;27.858;2023-04-06T09:10:14;8.53;;;7.87;;
6033;SDS011;3045;43.226;27.858;2023-04-06T09:12:43;8.37;;;6.87;;
6033;SDS011;3045;43.226;27.858;2023-04-06T09:15:17;9.83;;;6.47;;
6033;SDS011;3045;43.226;27.858;2023-04-06T09:17:45;6.27;;;5.97;;
6033;SDS011;3045;43.226;27.858;2023-04-06T09:20:12;7.10;;;6.50;;
6033;SDS011;3045;43.226;27.858;2023-04-06T09:22:39;7.13;;;6.83;;
6033;SDS011;3045;43.226;27.858;2023-04-06T09:25:08;6.20;;;5.80;;
6033;SDS011;3045;43.226;27.858;2023-04-06T09:27:39;7.17;;;6.87;;
6033;SDS011;3045;43.226;27.858;2023-04-06T09:30:07;12.77;;;7.27;;
6033;SDS011;3045;43.226;27.858;2023-04-06T09:32:45;7.60;;;6.93;;
6033;SDS011;3045;43.226;27.858;2023-04-06T09:35:13;7.93;;;7.13;;
6033;SDS011;3045;43.226;27.858;2023-04-06T09:37:41;6.80;;;6.17;;
6033;SDS011;3045;43.226;27.858;2023-04-06T09:40:08;7.03;;;6.67;;
6033;SDS011;3045;43.226;27.858;2023-04-06T09:42:40;6.83;;;6.53;;
6033;SDS011;3045;43.226;27.858;2023-04-06T09:45:08;7.17;;;6.60;;
6033;SDS011;3045;43.226;27.858;2023-04-06T09:47:36;8.50;;;7.73;;
6033;SDS011;3045;43.226;27.858;2023-04-06T09:50:05;8.13;;;7.50;;
6033;SDS011;3045;43.226;27.858;2023-04-06T09:52:37;7.53;;;7.13;;
6033;SDS011;3045;43.226;27.858;2023-04-06T09:55:08;6.47;;;6.27;;
6033;SDS011;3045;43.226;27.858;2023-04-06T09:57:37;7.57;;;7.07;;
6033;SDS011;3045;43.226;27.858;2023-04-06T10:00:16;8.37;;;7.67;;
6033;SDS011;3045;43.226;27.858;2023-04-06T10:02:50;9.73;;;7.27;;
6033;SDS011;3045;43.226;27.858;2023-04-06T10:05:22;11.03;;;8.27;;
6033;SDS011;3045;43.226;27.858;2023-04-06T10:07:59;8.77;;;7.90;;
6033;SDS011;3045;43.226;27.858;2023-04-06T10:10:32;11.83;;;7.77;;
6033;SDS011;3045;43.226;27.858;2023-04-06T10:13:01;8.47;;;7.50;;
6033;SDS011;3045;43.226;27.858;2023-04-06T10:15:29;7.93;;;7.33;;
6033;SDS011;3045;43.226;27.858;2023-04-06T10:17:57;8.60;;;8.00;;
6033;SDS011;3045;43.226;27.858;2023-04-06T10:20:27;8.77;;;8.03;;
6033;SDS011;3045;43.226;27.858;2023-04-06T10:22:59;17.33;;;7.97;;
6033;SDS011;3045;43.226;27.858;2023-04-06T10:25:32;7.43;;;7.03;;
6033;SDS011;3045;43.226;27.858;2023-04-06T10:28:01;9.23;;;8.33;;
6033;SDS011;3045;43.226;27.858;2023-04-06T10:30:31;8.33;;;7.60;;
6033;SDS011;3045;43.226;27.858;2023-04-06T10:32:59;8.47;;;8.07;;
6033;SDS011;3045;43.226;27.858;2023-04-06T10:35:36;9.97;;;9.37;;
6033;SDS011;3045;43.226;27.858;2023-04-06T10:38:04;9.97;;;8.93;;
6033;SDS011;3045;43.226;27.858;2023-04-06T10:40:35;9.13;;;8.60;;
6033;SDS011;3045;43.226;27.858;2023-04-06T10:43:08;8.87;;;8.13;;
6033;SDS011;3045;43.226;27.858;2023-04-06T10:45:36;8.53;;;7.97;;
6033;SDS011;3045;43.226;27.858;2023-04-06T10:48:14;8.93;;;8.20;;
6033;SDS011;3045;43.226;27.858;2023-04-06T10:50:42;8.57;;;7.97;;
6033;SDS011;3045;43.226;27.858;2023-04-06T10:53:11;8.60;;;7.80;;
6033;SDS011;3045;43.226;27.858;2023-04-06T10:55:38;8.07;;;7.47;;
6033;SDS011;3045;43.226;27.858;2023-04-06T10:58:08;7.93;;;7.37;;
6033;SDS011;3045;43.226;27.858;2023-04-06T11:00:43;9.10;;;8.20;;
6033;SDS011;3045;43.226;27.858;2023-04-06T11:03:11;9.67;;;8.93;;
6033;SDS011;3045;43.226;27.858;2023-04-06T11:05:38;8.43;;;7.73;;
6033;SDS011;3045;43.226;27.858;2023-04-06T11:08:09;8.10;;;7.50;;
6033;SDS011;3045;43.226;27.858;2023-04-06T11:10:38;9.03;;;8.23;;
6033;SDS011;3045;43.226;27.858;2023-04-06T11:13:05;7.40;;;6.90;;
6033;SDS011;3045;43.226;27.858;2023-04-06T11:15:35;8.40;;;7.60;;
6033;SDS011;3045;43.226;27.858;2023-04-06T11:18:03;7.80;;;7.20;;
6033;SDS011;3045;43.226;27.858;2023-04-06T11:20:31;7.03;;;6.63;;
6033;SDS011;3045;43.226;27.858;2023-04-06T11:22:58;7.53;;;7.13;;
6033;SDS011;3045;43.226;27.858;2023-04-06T11:25:28;7.83;;;7.43;;
6033;SDS011;3045;43.226;27.858;2023-04-06T11:27:57;7.97;;;7.47;;
6033;SDS011;3045;43.226;27.858;2023-04-06T11:30:27;9.33;;;8.40;;
6033;SDS011;3045;43.226;27.858;2023-04-06T11:33:00;7.33;;;6.93;;
6033;SDS011;3045;43.226;27.858;2023-04-06T11:35:27;6.73;;;6.43;;
6033;SDS011;3045;43.226;27.858;2023-04-06T11:37:59;6.90;;;6.60;;
6033;SDS011;3045;43.226;27.858;2023-04-06T11:40:31;7.90;;;7.40;;
6033;SDS011;3045;43.226;27.858;2023-04-06T11:42:58;8.17;;;7.47;;
6033;SDS011;3045;43.226;27.858;2023-04-06T11:45:25;8.00;;;7.50;;
6033;SDS011;3045;43.226;27.858;2023-04-06T11:47:57;8.23;;;7.73;;
6033;SDS011;3045;43.226;27.858;2023-04-06T11:50:31;8.60;;;7.70;;
6033;SDS011;3045;43.226;27.858;2023-04-06T11:52:59;8.33;;;7.93;;
6033;SDS011;3045;43.226;27.858;2023-04-06T11:55:36;8.63;;;7.97;;
6033;SDS011;3045;43.226;27.858;2023-04-06T11:58:04;8.87;;;8.13;;
6033;SDS011;3045;43.226;27.858;2023-04-06T12:00:32;7.57;;;7.07;;
6033;SDS011;3045;43.226;27.858;2023-04-06T12:03:01;9.03;;;7.27;;
6033;SDS011;3045;43.226;27.858;2023-04-06T12:05:28;7.80;;;7.30;;
6033;SDS011;3045;43.226;27.858;2023-04-06T12:07:55;8.80;;;8.10;;
6033;SDS011;3045;43.226;27.858;2023-04-06T12:10:22;8.70;;;7.93;;
6033;SDS011;3045;43.226;27.858;2023-04-06T12:12:49;8.17;;;7.63;;
6033;SDS011;3045;43.226;27.858;2023-04-06T12:15:16;7.17;;;6.77;;
6033;SDS011;3045;43.226;27.858;2023-04-06T12:17:43;7.33;;;6.73;;
6033;SDS011;3045;43.226;27.858;2023-04-06T12:20:12;7.53;;;7.03;;
6033;SDS011;3045;43.226;27.858;2023-04-06T12:22:39;8.30;;;7.37;;
6033;SDS011;3045;43.226;27.858;2023-04-06T12:25:06;8.63;;;8.13;;
6033;SDS011;3045;43.226;27.858;2023-04-06T12:27:34;6.73;;;6.23;;
6033;SDS011;3045;43.226;27.858;2023-04-06T12:30:01;7.03;;;6.63;;
6033;SDS011;3045;43.226;27.858;2023-04-06T12:32:28;7.60;;;7.20;;
6033;SDS011;3045;43.226;27.858;2023-04-06T12:34:55;15.07;;;7.57;;
6033;SDS011;3045;43.226;27.858;2023-04-06T12:37:23;15.63;;;6.83;;
6033;SDS011;3045;43.226;27.858;2023-04-06T12:39:52;6.30;;;5.90;;
6033;SDS011;3045;43.226;27.858;2023-04-06T12:42:19;6.70;;;6.23;;
6033;SDS011;3045;43.226;27.858;2023-04-06T12:44:46;7.37;;;6.87;;
6033;SDS011;3045;43.226;27.858;2023-04-06T12:47:13;7.83;;;7.23;;
6033;SDS011;3045;43.226;27.858;2023-04-06T12:49:41;6.73;;;6.33;;
6033;SDS011;3045;43.226;27.858;2023-04-06T12:52:08;6.97;;;6.57;;
6033;SDS011;3045;43.226;27.858;2023-04-06T12:54:36;7.40;;;6.97;;
6033;SDS011;3045;43.226;27.858;2023-04-06T12:57:06;6.70;;;6.40;;
6033;SDS011;3045;43.226;27.858;2023-04-06T12:59:33;6.90;;;6.60;;
6033;SDS011;3045;43.226;27.858;2023-04-06T13:02:03;8.17;;;7.43;;
6033;SDS011;3045;43.226;27.858;2023-04-06T13:04:31;7.60;;;7.20;;
6033;SDS011;3045;43.226;27.858;2023-04-06T13:06:59;7.93;;;7.37;;
6033;SDS011;3045;43.226;27.858;2023-04-06T13:09:26;8.53;;;8.03;;
6033;SDS011;3045;43.226;27.858;2023-04-06T13:11:55;7.57;;;7.27;;
6033;SDS011;3045;43.226;27.858;2023-04-06T13:14:22;7.93;;;7.33;;
6033;SDS011;3045;43.226;27.858;2023-04-06T13:16:49;7.67;;;7.27;;
6033;SDS011;3045;43.226;27.858;2023-04-06T13:19:16;8.27;;;7.53;;
6033;SDS011;3045;43.226;27.858;2023-04-06T13:21:43;8.80;;;8.20;;
6033;SDS011;3045;43.226;27.858;2023-04-06T13:24:10;7.97;;;7.47;;
6033;SDS011;3045;43.226;27.858;2023-04-06T13:26:37;7.77;;;7.07;;
6033;SDS011;3045;43.226;27.858;2023-04-06T13:29:06;9.60;;;7.20;;
6033;SDS011;3045;43.226;27.858;2023-04-06T13:31:33;8.27;;;7.57;;
6033;SDS011;3045;43.226;27.858;2023-04-06T13:34:00;8.30;;;7.90;;
6033;SDS011;3045;43.226;27.858;2023-04-06T13:36:27;9.00;;;8.33;;
6033;SDS011;3045;43.226;27.858;2023-04-06T13:38:55;9.47;;;8.60;;
6033;SDS011;3045;43.226;27.858;2023-04-06T13:41:23;9.67;;;8.77;;
6033;SDS011;3045;43.226;27.858;2023-04-06T13:43:51;8.70;;;7.87;;
6033;SDS011;3045;43.226;27.858;2023-04-06T13:46:21;9.80;;;8.87;;
6033;SDS011;3045;43.226;27.858;2023-04-06T13:48:49;9.00;;;8.37;;
6033;SDS011;3045;43.226;27.858;2023-04-06T13:51:16;9.40;;;8.20;;
6033;SDS011;3045;43.226;27.858;2023-04-06T13:53:43;8.37;;;7.83;;
6033;SDS011;3045;43.226;27.858;2023-04-06T13:56:10;9.60;;;8.73;;
6033;SDS011;3045;43.226;27.858;2023-04-06T13:58:37;8.87;;;8.10;;
6033;SDS011;3045;43.226;27.858;2023-04-06T14:01:04;9.53;;;8.87;;
6033;SDS011;3045;43.226;27.858;2023-04-06T14:03:33;9.27;;;8.40;;
6033;SDS011;3045;43.226;27.858;2023-04-06T14:06:00;14.07;;;9.47;;
6033;SDS011;3045;43.226;27.858;2023-04-06T14:08:35;8.67;;;7.93;;
6033;SDS011;3045;43.226;27.858;2023-04-06T14:11:02;9.67;;;9.07;;
6033;SDS011;3045;43.226;27.858;2023-04-06T14:13:29;8.80;;;8.13;;
6033;SDS011;3045;43.226;27.858;2023-04-06T14:15:56;9.60;;;9.00;;
6033;SDS011;3045;43.226;27.858;2023-04-06T14:18:23;12.57;;;8.93;;
6033;SDS011;3045;43.226;27.858;2023-04-06T14:20:55;9.40;;;8.77;;
6033;SDS011;3045;43.226;27.858;2023-04-06T14:23:25;10.23;;;9.43;;
6033;SDS011;3045;43.226;27.858;2023-04-06T14:26:00;10.20;;;9.53;;
6033;SDS011;3045;43.226;27.858;2023-04-06T14:28:29;9.73;;;9.17;;
6033;SDS011;3045;43.226;27.858;2023-04-06T14:30:56;9.27;;;8.77;;
6033;SDS011;3045;43.226;27.858;2023-04-06T14:33:23;9.43;;;8.80;;
6033;SDS011;3045;43.226;27.858;2023-04-06T14:35:50;9.53;;;8.77;;
6033;SDS011;3045;43.226;27.858;2023-04-06T14:38:18;9.33;;;8.83;;
6033;SDS011;3045;43.226;27.858;2023-04-06T14:40:45;12.73;;;9.50;;
6033;SDS011;3045;43.226;27.858;2023-04-06T14:43:12;10.67;;;9.87;;
6033;SDS011;3045;43.226;27.858;2023-04-06T14:45:40;11.23;;;10.53;;
6033;SDS011;3045;43.226;27.858;2023-04-06T14:48:07;11.53;;;10.80;;
6033;SDS011;3045;43.226;27.858;2023-04-06T14:50:37;13.97;;;11.77;;
6033;SDS011;3045;43.226;27.858;2023-04-06T14:53:04;13.23;;;11.60;;
6033;SDS011;3045;43.226;27.858;2023-04-06T14:55:32;10.57;;;9.97;;
6033;SDS011;3045;43.226;27.858;2023-04-06T14:58:05;11.27;;;10.60;;
6033;SDS011;3045;43.226;27.858;2023-04-06T15:00:32;11.10;;;10.50;;